createdAt,value
2019-02-06T00:03:31.181Z,-0.96
2019-02-06T00:07:33.672Z,-0.98
2019-02-06T00:11:36.648Z,-0.98
2019-02-06T00:15:39.439Z,-0.99
2019-02-06T00:19:42.594Z,-1.02
2019-02-06T00:23:45.128Z,-1.04
2019-02-06T00:27:47.771Z,-1.05
2019-02-06T00:31:50.178Z,-1.05
2019-02-06T00:35:52.721Z,-1.04
2019-02-06T00:39:55.134Z,-1.05
2019-02-06T00:43:57.573Z,-1.06
2019-02-06T00:48:00.171Z,-1.08
2019-02-06T00:52:02.579Z,-1.09
2019-02-06T00:56:05.194Z,-1.10
2019-02-06T01:00:13.472Z,-1.11
2019-02-06T01:04:16.191Z,-1.13
2019-02-06T01:08:18.843Z,-1.12
2019-02-06T01:12:21.371Z,-1.14
2019-02-06T01:16:24.088Z,-1.15
2019-02-06T01:20:27.011Z,-1.14
2019-02-06T01:24:29.803Z,-1.16
2019-02-06T01:28:32.189Z,-1.17
2019-02-06T01:32:34.563Z,-1.19
2019-02-06T01:36:37.070Z,-1.19
2019-02-06T01:40:39.565Z,-1.21
2019-02-06T01:44:42.081Z,-1.22
2019-02-06T01:48:44.573Z,-1.23
2019-02-06T01:52:47.105Z,-1.24
2019-02-06T01:56:49.505Z,-1.26
2019-02-06T02:00:51.981Z,-1.27
2019-02-06T02:04:54.325Z,-1.30
2019-02-06T02:09:01.290Z,-1.32
2019-02-06T02:13:05.457Z,-1.34
2019-02-06T02:17:08.301Z,-1.36
2019-02-06T02:21:11.188Z,-1.36
2019-02-06T02:25:15.251Z,-1.33
2019-02-06T02:29:17.634Z,-1.34
2019-02-06T02:33:20.167Z,-1.34
2019-02-06T02:37:22.610Z,-1.33
2019-02-06T02:41:25.010Z,-1.33
2019-02-06T02:45:27.377Z,-1.36
2019-02-06T02:49:29.811Z,-1.34
2019-02-06T02:53:32.161Z,-1.36
2019-02-06T02:57:34.556Z,-1.38
2019-02-06T03:01:53.628Z,-1.40
2019-02-06T03:05:56.171Z,-1.42
2019-02-06T03:09:58.855Z,-1.44
2019-02-06T03:14:01.274Z,-1.44
2019-02-06T03:18:04.111Z,-1.44
2019-02-06T03:22:07.273Z,-1.45
2019-02-06T03:26:10.101Z,-1.45
2019-02-06T03:30:15.054Z,-1.42
2019-02-06T03:34:17.572Z,-1.43
2019-02-06T03:38:20.002Z,-1.44
2019-02-06T03:42:22.596Z,-1.43
2019-02-06T03:46:25.365Z,-1.43
2019-02-06T03:50:27.948Z,-1.44
2019-02-06T03:54:30.480Z,-1.46
2019-02-06T03:58:33.063Z,-1.47
2019-02-06T04:02:35.510Z,-1.46
2019-02-06T04:06:37.852Z,-1.45
2019-02-06T04:10:40.438Z,-1.43
2019-02-06T04:14:43.215Z,-1.41
2019-02-06T04:18:45.687Z,-1.41
2019-02-06T04:22:51.612Z,-1.39
2019-02-06T04:26:54.411Z,-1.37
2019-02-06T04:30:57.867Z,-1.37
2019-02-06T04:35:00.614Z,-1.52
2019-02-06T04:39:04.334Z,-1.77
2019-02-06T04:43:07.429Z,-1.94
2019-02-06T04:47:10.053Z,-2.04
2019-02-06T04:51:13.739Z,-2.16
2019-02-06T04:55:16.871Z,-2.29
2019-02-06T04:59:19.896Z,-2.40
2019-02-06T05:03:25.632Z,-2.54
2019-02-06T05:07:26.918Z,-2.71
2019-02-06T05:11:29.526Z,-2.84
2019-02-06T05:15:32.421Z,-2.91
2019-02-06T05:19:35.146Z,-2.92
2019-02-06T05:23:37.801Z,-3.01
2019-02-06T05:27:40.628Z,-3.15
2019-02-06T05:31:43.284Z,-3.30
2019-02-06T05:35:45.954Z,-3.37
2019-02-06T05:39:48.578Z,-3.40
2019-02-06T05:43:51.258Z,-3.56
2019-02-06T05:47:54.044Z,-3.85
2019-02-06T05:51:56.666Z,-4.14
2019-02-06T05:55:59.453Z,-4.37
2019-02-06T06:00:01.974Z,-4.58
2019-02-06T06:04:04.874Z,-4.83
2019-02-06T06:08:07.654Z,-4.99
2019-02-06T06:12:10.398Z,-5.12
2019-02-06T06:16:12.813Z,-5.28
2019-02-06T06:20:17.050Z,-5.42
2019-02-06T06:24:19.477Z,-5.54
2019-02-06T06:28:21.885Z,-5.71
2019-02-06T06:32:25.726Z,-5.81
2019-02-06T06:36:28.238Z,-5.98
2019-02-06T06:40:31.009Z,-6.15
2019-02-06T06:44:33.578Z,-6.28
2019-02-06T06:48:36.328Z,-6.42
2019-02-06T06:52:39.098Z,-6.55
2019-02-06T06:56:41.595Z,-6.66
2019-02-06T07:00:44.243Z,-6.78
2019-02-06T07:04:46.858Z,-6.94
2019-02-06T07:08:49.418Z,-7.05
2019-02-06T07:12:52.363Z,-7.17
2019-02-06T07:16:54.813Z,-7.33
2019-02-06T07:21:01.344Z,-7.42
2019-02-06T07:25:02.764Z,-7.59
2019-02-06T07:29:05.399Z,-7.71
2019-02-06T07:33:08.124Z,-7.82
2019-02-06T07:37:11.034Z,-7.69
2019-02-06T07:41:13.810Z,-7.39
2019-02-06T07:45:17.672Z,-7.45
2019-02-06T07:49:20.359Z,-7.47
2019-02-06T07:53:23.265Z,-7.43
2019-02-06T07:57:26.014Z,-7.41
2019-02-06T08:01:28.867Z,-7.38
2019-02-06T08:05:31.645Z,-7.36
2019-02-06T08:09:34.422Z,-7.39
2019-02-06T08:13:37.222Z,-7.36
2019-02-06T08:17:39.885Z,-7.32
2019-02-06T08:21:42.669Z,-7.08
2019-02-06T08:25:45.454Z,-7.23
2019-02-06T08:29:48.212Z,-7.08
2019-02-06T08:33:50.963Z,-6.91
2019-02-06T08:37:53.895Z,-7.11
2019-02-06T08:41:56.710Z,-6.86
2019-02-06T08:45:59.543Z,-7.07
2019-02-06T08:50:02.181Z,-6.90
2019-02-06T08:54:08.325Z,-6.81
2019-02-06T08:58:11.257Z,-6.80
2019-02-06T09:02:14.092Z,-6.82
2019-02-06T09:06:16.843Z,-6.87
2019-02-06T09:10:21.504Z,-7.05
2019-02-06T09:14:24.172Z,-7.36
2019-02-06T09:18:26.912Z,-7.51
2019-02-06T09:22:29.538Z,-7.58
2019-02-06T09:26:36.056Z,-7.50
2019-02-06T09:30:37.298Z,-7.46
2019-02-06T09:34:40.210Z,-7.44
2019-02-06T09:38:42.818Z,-7.42
2019-02-06T09:42:45.908Z,-7.33
2019-02-06T09:46:48.383Z,-7.25
2019-02-06T09:50:51.388Z,-7.20
2019-02-06T09:54:54.134Z,-7.17
2019-02-06T09:58:56.842Z,-7.18
2019-02-06T10:02:59.688Z,-7.16
2019-02-06T10:07:02.452Z,-7.10
2019-02-06T10:11:05.127Z,-7.04
2019-02-06T10:15:08.144Z,-6.88
2019-02-06T10:19:10.751Z,-6.85
2019-02-06T10:23:13.799Z,-6.91
2019-02-06T10:27:16.446Z,-6.88
2019-02-06T10:31:19.208Z,-6.78
2019-02-06T10:35:21.948Z,-6.79
2019-02-06T10:39:34.351Z,-6.75
2019-02-06T10:43:32.575Z,-6.58
2019-02-06T10:47:35.029Z,-6.67
2019-02-06T10:51:37.589Z,-6.70
2019-02-06T10:55:40.400Z,-6.78
2019-02-06T10:59:42.994Z,-6.80
2019-02-06T11:03:45.815Z,-6.72
2019-02-06T11:07:48.426Z,-6.63
2019-02-06T11:11:51.180Z,-6.70
2019-02-06T11:15:53.687Z,-6.74
2019-02-06T11:19:56.334Z,-6.68
2019-02-06T11:23:58.974Z,-6.66
2019-02-06T11:28:01.744Z,-6.69
2019-02-06T11:32:05.008Z,-6.75
2019-02-06T11:36:07.810Z,-6.68
2019-02-06T11:40:15.412Z,-6.65
2019-02-06T11:44:17.578Z,-6.62
2019-02-06T11:48:19.908Z,-6.67
2019-02-06T11:52:23.949Z,-6.65
2019-02-06T11:56:26.513Z,-6.64
2019-02-06T12:00:35.858Z,-6.63
2019-02-06T12:04:38.324Z,-6.54
2019-02-06T12:08:40.833Z,-6.44
2019-02-06T12:12:43.433Z,-6.48
2019-02-06T12:16:46.102Z,-6.31
2019-02-06T12:20:48.723Z,-6.31
2019-02-06T12:24:51.498Z,-6.27
2019-02-06T12:28:54.116Z,-6.32
2019-02-06T12:32:57.048Z,-6.31
2019-02-06T12:36:59.609Z,-6.35
2019-02-06T12:41:02.390Z,-6.47
2019-02-06T12:45:05.853Z,-6.53
2019-02-06T12:49:08.653Z,-6.63
2019-02-06T12:53:11.308Z,-6.65
2019-02-06T12:57:15.703Z,-6.70
2019-02-06T13:01:18.286Z,-6.76
2019-02-06T13:05:20.993Z,-6.81
2019-02-06T13:09:23.503Z,-6.79
2019-02-06T13:13:26.366Z,-6.86
2019-02-06T13:17:29.001Z,-6.97
2019-02-06T13:21:31.586Z,-7.10
2019-02-06T13:25:33.984Z,-7.18
2019-02-06T13:29:36.643Z,-7.22
2019-02-06T13:33:39.439Z,-7.26
2019-02-06T13:37:42.419Z,-7.30
2019-02-06T13:41:44.963Z,-7.47
2019-02-06T13:45:48.811Z,-7.61
2019-02-06T13:49:51.708Z,-7.71
2019-02-06T13:53:54.956Z,-7.85
2019-02-06T13:57:57.643Z,-7.99
2019-02-06T14:02:01.087Z,-8.05
2019-02-06T14:06:04.097Z,-8.19
2019-02-06T14:10:08.363Z,-8.38
2019-02-06T14:14:12.495Z,-8.32
2019-02-06T14:18:15.553Z,-8.08
2019-02-06T14:22:18.102Z,-7.95
2019-02-06T14:26:49.949Z,-7.84
2019-02-06T14:31:47.933Z,-7.75
2019-02-06T14:36:42.954Z,-7.73
2019-02-06T14:41:32.123Z,-7.68
2019-02-06T14:46:05.970Z,-7.71
2019-02-06T14:50:33.912Z,-7.66
2019-02-06T14:55:07.136Z,-7.59
2019-02-06T14:59:48.638Z,-7.50
2019-02-06T15:04:18.203Z,-7.45
2019-02-06T15:08:55.481Z,-7.52
2019-02-06T15:13:36.962Z,-7.51
2019-02-06T15:18:32.077Z,-7.52
2019-02-06T15:23:01.599Z,-7.51
2019-02-06T15:28:05.963Z,-7.48
2019-02-06T15:32:28.702Z,-7.47
2019-02-06T15:37:02.095Z,-7.45
2019-02-06T15:41:39.828Z,-7.44
2019-02-06T15:46:18.768Z,-7.40
2019-02-06T15:50:42.242Z,-7.35
2019-02-06T15:55:23.039Z,-7.29
2019-02-06T16:00:08.143Z,-7.30
2019-02-06T16:04:54.017Z,-7.26
2019-02-06T16:09:34.601Z,-7.20
2019-02-06T16:14:13.330Z,-7.15
2019-02-06T16:18:33.638Z,-7.13
2019-02-06T16:23:06.027Z,-7.06
2019-02-06T16:27:51.872Z,-7.04
2019-02-06T16:32:27.258Z,-6.99
2019-02-06T16:37:19.645Z,-6.90
2019-02-06T16:41:29.474Z,-6.91
2019-02-06T16:46:30.767Z,-6.87
2019-02-06T16:51:09.212Z,-6.87
2019-02-06T16:55:50.655Z,-6.83
2019-02-06T17:00:40.018Z,-6.79
2019-02-06T17:05:31.722Z,-6.80
2019-02-06T17:10:32.881Z,-6.78
2019-02-06T17:15:25.792Z,-6.73
2019-02-06T17:19:51.251Z,-6.66
2019-02-06T17:24:35.741Z,-6.58
2019-02-06T17:29:10.287Z,-6.61
2019-02-06T17:33:52.737Z,-6.53
2019-02-06T17:38:31.954Z,-6.43
2019-02-06T17:43:17.753Z,-6.38
2019-02-06T17:48:08.422Z,-6.38
2019-02-06T17:52:43.722Z,-6.39
2019-02-06T17:56:46.558Z,-6.40
2019-02-06T18:01:21.578Z,-6.43
2019-02-06T18:05:27.073Z,-6.47
2019-02-06T18:09:30.097Z,-6.51
2019-02-06T18:13:32.794Z,-6.53
2019-02-06T18:17:35.407Z,-6.52
2019-02-06T18:21:38.242Z,-6.53
2019-02-06T18:25:41.452Z,-6.51
2019-02-06T18:29:44.237Z,-6.47
2019-02-06T18:33:47.118Z,-6.47
2019-02-06T18:37:52.337Z,-6.46
2019-02-06T18:41:55.321Z,-6.44
2019-02-06T18:45:59.447Z,-6.46
2019-02-06T18:50:03.242Z,-6.42
2019-02-06T18:54:08.926Z,-6.37
2019-02-06T18:58:12.287Z,-6.32
2019-02-06T19:02:17.052Z,-6.30
2019-02-06T19:06:19.952Z,-6.26
2019-02-06T19:10:22.672Z,-6.25
2019-02-06T19:14:25.951Z,-6.23
2019-02-06T19:18:28.646Z,-6.22
2019-02-06T19:22:32.971Z,-6.21
2019-02-06T19:26:35.711Z,-6.18
2019-02-06T19:30:39.642Z,-6.16
2019-02-06T19:34:42.284Z,-6.16
2019-02-06T19:38:46.154Z,-6.13
2019-02-06T19:42:58.858Z,-6.14
2019-02-06T19:46:54.389Z,-6.14
2019-02-06T19:50:57.142Z,-6.13
2019-02-06T19:54:59.951Z,-6.10
2019-02-06T19:59:02.574Z,-6.09
2019-02-06T20:03:08.227Z,-6.11
2019-02-06T20:07:10.808Z,-6.12
2019-02-06T20:11:14.136Z,-6.12
2019-02-06T20:15:17.232Z,-6.10
2019-02-06T20:19:20.753Z,-6.10
2019-02-06T20:23:24.854Z,-6.09
2019-02-06T20:27:27.617Z,-6.07
2019-02-06T20:31:30.250Z,-6.10
2019-02-06T20:35:33.166Z,-6.07
2019-02-06T20:39:35.848Z,-6.02
2019-02-06T20:43:39.118Z,-6.08
2019-02-06T20:47:41.723Z,-6.03
2019-02-06T20:51:44.475Z,-6.00
2019-02-06T20:55:47.469Z,-6.01
2019-02-06T20:59:50.148Z,-6.04
2019-02-06T21:03:53.191Z,-6.02
2019-02-06T21:07:55.834Z,-5.98
2019-02-06T21:11:58.641Z,-5.96
2019-02-06T21:16:01.592Z,-6.01
2019-02-06T21:20:04.362Z,-6.11
2019-02-06T21:24:07.278Z,-6.07
2019-02-06T21:28:10.029Z,-6.06
2019-02-06T21:32:12.851Z,-6.06
2019-02-06T21:36:15.610Z,-6.02
2019-02-06T21:40:20.919Z,-5.97
2019-02-06T21:44:23.720Z,-5.97
2019-02-06T21:48:26.441Z,-5.97
2019-02-06T21:52:29.153Z,-5.90
2019-02-06T21:56:31.808Z,-5.86
2019-02-06T22:00:37.699Z,-5.81
2019-02-06T22:04:40.389Z,-5.84
2019-02-06T22:08:43.327Z,-5.80
2019-02-06T22:12:46.361Z,-5.77
2019-02-06T22:16:50.755Z,-5.74
2019-02-06T22:20:53.866Z,-5.69
2019-02-06T22:24:56.647Z,-5.63
2019-02-06T22:29:00.336Z,-5.60
2019-02-06T22:33:03.152Z,-5.54
2019-02-06T22:37:06.295Z,-5.53
2019-02-06T22:41:09.082Z,-5.49
2019-02-06T22:45:15.155Z,-5.48
2019-02-06T22:49:17.806Z,-5.45
2019-02-06T22:53:20.552Z,-5.39
2019-02-06T22:57:23.187Z,-5.28
2019-02-06T23:01:38.097Z,-5.17
2019-02-06T23:05:41.056Z,-5.08
2019-02-06T23:09:43.825Z,-5.01
2019-02-06T23:13:46.649Z,-5.03
2019-02-06T23:17:49.733Z,-5.01
2019-02-06T23:21:52.630Z,-4.85
2019-02-06T23:25:55.323Z,-4.69
2019-02-06T23:29:58.034Z,-4.45
2019-02-06T23:34:00.654Z,-4.22
2019-02-06T23:38:03.316Z,-4.03
2019-02-06T23:42:06.147Z,-3.87
2019-02-06T23:46:08.799Z,-3.78
2019-02-06T23:50:11.721Z,-3.75
2019-02-06T23:54:14.434Z,-3.72
2019-02-06T23:58:17.209Z,-3.59
